Time;durP1;ratioP1;P1;durP2;ratioP2;P2;SDS_P1;SDS_P2;PMS_P1;PMS_P2;Temp;Humidity;BMP_temperature;BMP_pressure;BME280_temperature;BME280_humidity;BME280_pressure;Samples;Min_cycle;Max_cycle;Signal;HPM_P1;HPM_P2
2022/07/01 00:01:23;;;;;;;15.97;12.40;;;15.30;93.40;;;;;;5075209;28;20959;-75
2022/07/01 00:03:49;;;;;;;17.70;11.43;;;15.20;96.10;;;;;;5056657;28;20776;-75
2022/07/01 00:06:15;;;;;;;15.82;11.05;;;15.20;96.10;;;;;;5074578;28;20791;-75
2022/07/01 00:08:41;;;;;;;15.20;11.30;;;15.10;97.60;;;;;;5075316;28;20379;-72
2022/07/01 00:11:06;;;;;;;17.37;11.93;;;15.10;98.20;;;;;;5066001;28;20728;-76
2022/07/01 00:13:33;;;;;;;15.40;10.90;;;15.10;97.50;;;;;;5094512;28;20720;-76
2022/07/01 00:15:58;;;;;;;19.23;10.97;;;15.10;96.60;;;;;;5095367;28;20465;-75
2022/07/01 00:18:24;;;;;;;17.67;10.70;;;15.10;96.20;;;;;;5093943;28;20489;-77
2022/07/01 00:20:50;;;;;;;15.87;11.70;;;15.00;98.60;;;;;;5081717;28;20876;-76
2022/07/01 00:23:17;;;;;;;15.30;11.02;;;15.00;99.50;;;;;;5059090;28;20765;-75
2022/07/01 00:25:43;;;;;;;16.73;11.45;;;15.00;99.90;;;;;;5094261;28;20850;-75
2022/07/01 00:28:09;;;;;;;17.42;11.82;;;15.00;99.80;;;;;;5095196;28;20389;-75
2022/07/01 00:30:35;;;;;;;14.97;10.90;;;15.00;99.90;;;;;;5091383;28;20476;-77
2022/07/01 00:33:00;;;;;;;13.90;9.75;;;15.10;99.10;;;;;;5077437;28;20394;-76
2022/07/01 00:35:26;;;;;;;16.10;10.40;;;15.10;96.80;;;;;;5095421;28;20500;-76
2022/07/01 00:37:52;;;;;;;16.00;10.60;;;15.10;97.20;;;;;;5095631;28;20516;-76
2022/07/01 00:40:17;;;;;;;13.63;9.90;;;15.10;97.60;;;;;;5096037;28;20382;-76
2022/07/01 00:42:43;;;;;;;14.35;10.10;;;15.00;99.20;;;;;;5095743;28;20812;-76
2022/07/01 00:45:10;;;;;;;14.73;9.80;;;15.00;99.90;;;;;;5095242;28;20413;-76
2022/07/01 00:47:37;;;;;;;13.30;9.38;;;15.00;99.90;;;;;;5076958;28;20386;-76
2022/07/01 00:50:15;;;;;;;14.90;9.57;;;15.00;99.90;;;;;;5095105;28;20385;-76
2022/07/01 00:52:43;;;;;;;12.20;8.73;;;15.00;99.90;;;;;;5077149;28;20475;-76
2022/07/01 00:55:12;;;;;;;9.98;7.88;;;15.10;98.40;;;;;;5096061;28;21010;-76
2022/07/01 00:57:39;;;;;;;12.85;7.60;;;15.10;98.00;;;;;;5095516;28;20874;-76
2022/07/01 01:00:09;;;;;;;12.15;8.50;;;15.10;96.00;;;;;;5077589;28;20469;-77
2022/07/01 01:02:35;;;;;;;11.38;7.90;;;15.20;92.70;;;;;;5076171;28;20386;-77
2022/07/01 01:05:02;;;;;;;10.23;7.80;;;15.20;93.60;;;;;;5095787;28;20413;-77
2022/07/01 01:07:29;;;;;;;10.60;8.07;;;15.30;92.00;;;;;;5077794;28;20439;-77
2022/07/01 01:09:55;;;;;;;13.30;7.45;;;15.30;89.00;;;;;;5076327;28;20394;-77
2022/07/01 01:12:23;;;;;;;13.27;8.38;;;15.30;86.50;;;;;;5075613;28;20440;-77
2022/07/01 01:14:50;;;;;;;9.93;7.60;;;15.30;90.50;;;;;;5075999;28;20394;-77
2022/07/01 01:17:17;;;;;;;13.97;7.60;;;15.30;91.30;;;;;;5076699;28;20401;-77
2022/07/01 01:19:43;;;;;;;11.50;6.97;;;15.20;90.70;;;;;;5094457;28;20415;-77
2022/07/01 01:22:14;;;;;;;10.73;7.15;;;15.20;89.70;;;;;;5093730;28;20447;-77
2022/07/01 01:24:43;;;;;;;12.30;7.40;;;15.30;90.90;;;;;;5094041;28;20473;-77
2022/07/01 01:27:09;;;;;;;13.00;7.18;;;15.20;89.20;;;;;;5056090;28;20395;-77
2022/07/01 01:29:37;;;;;;;11.27;7.03;;;15.30;87.40;;;;;;5055972;28;20386;-77
2022/07/01 01:32:25;;;;;;;11.82;6.82;;;15.20;87.40;;;;;;5056713;28;20451;-75
2022/07/01 01:34:50;;;;;;;15.77;8.40;;;15.20;89.20;;;;;;5075562;28;20388;-76
2022/07/01 01:37:16;;;;;;;13.50;8.15;;;15.10;89.80;;;;;;5058271;28;20400;-77
2022/07/01 01:39:41;;;;;;;12.47;8.43;;;15.30;85.60;;;;;;5076815;28;21085;-76
2022/07/01 01:42:07;;;;;;;16.17;8.93;;;15.30;85.70;;;;;;5078069;28;20379;-76
2022/07/01 01:44:33;;;;;;;18.67;10.47;;;15.40;85.80;;;;;;5078233;28;20414;-75
2022/07/01 01:46:59;;;;;;;18.90;11.03;;;15.40;85.20;;;;;;5079560;28;20376;-76
2022/07/01 01:49:24;;;;;;;20.40;11.57;;;15.50;84.20;;;;;;5063390;28;20398;-76
2022/07/01 01:51:50;;;;;;;23.20;12.53;;;15.40;85.80;;;;;;5077962;28;20386;-76
2022/07/01 01:54:15;;;;;;;21.40;13.00;;;15.40;87.20;;;;;;5077359;28;20790;-77
2022/07/01 01:56:41;;;;;;;22.83;14.00;;;15.30;89.30;;;;;;5080238;28;20391;-76
2022/07/01 01:59:07;;;;;;;24.20;13.17;;;15.40;85.10;;;;;;5087151;28;20466;-76
2022/07/01 02:01:32;;;;;;;24.83;13.50;;;15.40;85.50;;;;;;5085715;28;20396;-76
2022/07/01 02:03:58;;;;;;;20.10;13.00;;;15.50;84.90;;;;;;5082985;28;20467;-76
2022/07/01 02:06:25;;;;;;;25.50;13.63;;;15.40;86.10;;;;;;5076253;28;20379;-76
2022/07/01 02:08:51;;;;;;;22.13;13.10;;;15.40;86.90;;;;;;5080811;28;20794;-76
2022/07/01 02:11:17;;;;;;;25.30;14.48;;;15.40;86.40;;;;;;5065009;28;20391;-77
2022/07/01 02:13:44;;;;;;;26.67;15.00;;;15.40;85.60;;;;;;5062090;28;20387;-76
2022/07/01 02:16:09;;;;;;;24.45;14.57;;;15.30;89.50;;;;;;5080013;28;20745;-76
2022/07/01 02:18:35;;;;;;;26.97;13.80;;;15.30;87.50;;;;;;5057402;28;20399;-76
2022/07/01 02:21:01;;;;;;;23.07;13.80;;;15.30;87.50;;;;;;5073685;28;20380;-77
2022/07/01 02:23:26;;;;;;;26.43;13.20;;;15.30;88.90;;;;;;5073702;28;20736;-76
2022/07/01 02:25:52;;;;;;;24.00;13.80;;;15.20;89.20;;;;;;5073202;28;20749;-77
2022/07/01 02:28:18;;;;;;;24.70;13.20;;;15.10;92.80;;;;;;5075792;28;20506;-77
2022/07/01 02:30:43;;;;;;;21.70;12.80;;;15.30;90.80;;;;;;5074532;28;20387;-77
2022/07/01 02:33:12;;;;;;;21.33;12.10;;;15.40;87.00;;;;;;5075251;28;20402;-76
2022/07/01 02:35:40;;;;;;;22.95;12.52;;;15.30;86.00;;;;;;5055768;28;20387;-77
2022/07/01 02:38:07;;;;;;;18.33;11.48;;;15.30;86.00;;;;;;5073272;28;20449;-77
2022/07/01 02:40:34;;;;;;;22.33;12.30;;;15.30;86.90;;;;;;5074575;28;20805;-77
2022/07/01 02:43:05;;;;;;;23.52;12.73;;;15.30;86.70;;;;;;5073528;28;20380;-76
2022/07/01 02:45:33;;;;;;;24.58;12.18;;;15.20;86.20;;;;;;5072850;28;20419;-77
2022/07/01 02:48:04;;;;;;;19.50;11.27;;;15.20;85.00;;;;;;5073223;28;20376;-76
2022/07/01 02:50:30;;;;;;;20.35;12.68;;;15.20;87.10;;;;;;5055112;28;20391;-75
2022/07/01 02:52:56;;;;;;;21.45;13.02;;;15.30;86.40;;;;;;5077141;28;20434;-77
2022/07/01 02:55:21;;;;;;;25.35;13.35;;;15.30;86.10;;;;;;5076483;28;20928;-76
2022/07/01 02:57:51;;;;;;;24.60;12.60;;;15.30;86.40;;;;;;5073368;28;20937;-76
2022/07/01 03:00:19;;;;;;;21.52;12.85;;;15.20;87.00;;;;;;5072734;28;20745;-76
2022/07/01 03:02:44;;;;;;;25.55;14.27;;;15.20;88.70;;;;;;5072496;28;20795;-76
2022/07/01 03:05:10;;;;;;;24.95;13.85;;;15.30;87.50;;;;;;5072773;28;20407;-78
2022/07/01 03:07:37;;;;;;;20.75;13.15;;;15.30;85.50;;;;;;5072232;28;20433;-76
2022/07/01 03:10:04;;;;;;;24.05;13.90;;;15.30;87.30;;;;;;5072658;28;20458;-76
2022/07/01 03:12:34;;;;;;;19.58;12.45;;;15.30;86.30;;;;;;5072093;28;20890;-75
2022/07/01 03:15:09;;;;;;;20.35;13.63;;;15.40;87.70;;;;;;5071652;28;20873;-75
2022/07/01 03:17:44;;;;;;;22.15;13.07;;;15.40;88.00;;;;;;5072075;28;20407;-76
2022/07/01 03:20:15;;;;;;;22.67;13.10;;;15.50;87.50;;;;;;5054018;28;20392;-77
2022/07/01 03:22:42;;;;;;;17.23;11.88;;;15.60;84.30;;;;;;5071705;28;20479;-76
2022/07/01 03:25:08;;;;;;;18.63;11.10;;;15.50;86.10;;;;;;5072448;28;20411;-77
2022/07/01 03:27:36;;;;;;;14.40;9.90;;;15.50;86.70;;;;;;5071820;28;20486;-76
2022/07/01 03:30:03;;;;;;;15.55;10.02;;;15.60;84.90;;;;;;5072215;28;20426;-76
2022/07/01 03:32:29;;;;;;;17.48;9.40;;;15.70;84.20;;;;;;5053332;28;20884;-77
2022/07/01 03:34:55;;;;;;;10.65;8.50;;;15.70;83.70;;;;;;5071851;28;20391;-77
2022/07/01 03:37:22;;;;;;;15.45;8.57;;;15.60;81.20;;;;;;5073361;28;20445;-77
2022/07/01 03:39:49;;;;;;;19.10;9.00;;;15.70;82.10;;;;;;5053709;28;20392;-76
2022/07/01 03:42:16;;;;;;;15.98;8.00;;;15.60;80.30;;;;;;5072328;28;20375;-77
2022/07/01 03:44:43;;;;;;;13.20;8.13;;;15.70;78.10;;;;;;5054821;28;20408;-77
2022/07/01 03:47:09;;;;;;;15.15;7.72;;;15.80;75.10;;;;;;5057887;28;20383;-77
2022/07/01 03:49:35;;;;;;;27.25;8.52;;;15.80;77.80;;;;;;5060753;28;20386;-76
2022/07/01 03:52:05;;;;;;;17.13;8.75;;;15.80;80.00;;;;;;5086967;28;20474;-76
2022/07/01 03:54:32;;;;;;;21.13;9.27;;;15.80;80.10;;;;;;5085487;28;20405;-77
2022/07/01 03:56:59;;;;;;;16.40;9.00;;;15.70;79.50;;;;;;5085060;28;20387;-77
2022/07/01 03:59:28;;;;;;;12.10;7.90;;;15.70;80.70;;;;;;5072561;28;20398;-77
2022/07/01 04:01:55;;;;;;;12.60;7.90;;;15.70;81.70;;;;;;5071656;28;20757;-77
2022/07/01 04:04:22;;;;;;;13.90;8.00;;;15.70;79.80;;;;;;5071158;28;20411;-77
2022/07/01 04:06:47;;;;;;;12.82;7.38;;;15.80;78.20;;;;;;5053150;28;20384;-77
2022/07/01 04:09:20;;;;;;;12.40;7.30;;;15.80;77.00;;;;;;5072393;28;20888;-77
2022/07/01 04:11:47;;;;;;;13.10;7.35;;;15.90;77.60;;;;;;5073560;28;20413;-77
2022/07/01 04:14:13;;;;;;;19.60;7.57;;;15.90;76.90;;;;;;5071585;28;20384;-77
2022/07/01 04:16:39;;;;;;;15.20;7.00;;;15.90;75.30;;;;;;5070957;28;20868;-77
2022/07/01 04:19:04;;;;;;;16.48;6.90;;;15.90;76.00;;;;;;5072291;28;20383;-77
2022/07/01 04:24:14;;;;;;;13.80;6.95;;;15.90;73.70;;;;;;5074003;28;20965;-77
2022/07/01 04:26:41;;;;;;;12.57;6.10;;;15.90;73.60;;;;;;5071413;28;20388;-77
2022/07/01 04:29:09;;;;;;;15.23;6.15;;;15.90;74.00;;;;;;5057321;28;20388;-77
2022/07/01 04:31:39;;;;;;;12.43;5.47;;;15.90;71.30;;;;;;5075480;28;20386;-77
2022/07/01 04:37:17;;;;;;;9.98;5.60;;;15.80;73.60;;;;;;5076625;28;20437;-77
2022/07/01 04:39:43;;;;;;;12.63;5.63;;;16.00;72.00;;;;;;5076063;28;20869;-77
2022/07/01 04:42:08;;;;;;;12.10;5.43;;;16.00;70.90;;;;;;5077146;28;20458;-77
2022/07/01 04:44:36;;;;;;;11.15;5.50;;;16.10;70.20;;;;;;5059465;28;20412;-77
2022/07/01 04:47:13;;;;;;;12.90;5.78;;;16.20;68.70;;;;;;5074849;28;20415;-77
2022/07/01 04:49:46;;;;;;;9.25;5.80;;;16.20;69.30;;;;;;5056794;28;20426;-77
2022/07/01 04:52:15;;;;;;;9.63;6.13;;;16.10;69.50;;;;;;5074456;28;20380;-77
2022/07/01 04:54:43;;;;;;;14.50;6.57;;;16.10;67.60;;;;;;5074995;28;20383;-76
2022/07/01 04:57:09;;;;;;;13.27;5.60;;;16.10;68.40;;;;;;5056846;28;20398;-77
2022/07/01 04:59:36;;;;;;;8.60;5.68;;;16.10;68.80;;;;;;5075300;28;20474;-77
2022/07/01 05:02:02;;;;;;;9.35;5.78;;;16.10;66.80;;;;;;5057024;28;20380;-77
2022/07/01 05:04:28;;;;;;;10.82;5.80;;;16.10;67.20;;;;;;5075210;28;20919;-76
2022/07/01 05:06:54;;;;;;;8.30;4.80;;;16.20;68.10;;;;;;5056388;28;20380;-76
2022/07/01 05:09:22;;;;;;;10.90;5.15;;;16.20;65.10;;;;;;5076124;28;20433;-78
2022/07/01 05:11:49;;;;;;;9.47;5.00;;;16.30;62.00;;;;;;5079277;28;20983;-77
2022/07/01 05:14:15;;;;;;;9.52;5.35;;;16.20;63.90;;;;;;5058631;28;20490;-77
2022/07/01 05:16:40;;;;;;;9.98;5.80;;;16.30;64.40;;;;;;5076737;28;20779;-76
2022/07/01 05:22:00;;;;;;;14.20;6.93;;;16.30;62.80;;;;;;5061275;28;21270;-76
2022/07/01 05:24:33;;;;;;;13.25;6.70;;;16.20;61.80;;;;;;5056676;28;20464;-77
2022/07/01 05:27:00;;;;;;;17.33;8.70;;;16.10;64.40;;;;;;5057328;28;20445;-76
2022/07/01 05:29:26;;;;;;;14.00;8.77;;;16.20;64.80;;;;;;5059081;28;20864;-78
2022/07/01 05:32:12;;;;;;;21.30;10.23;;;16.20;64.00;;;;;;5086259;28;20386;-75
2022/07/01 05:35:27;;;;;;;17.05;9.10;;;16.20;63.80;;;;;;5025366;28;20499;-77
2022/07/01 05:38:14;;;;;;;14.10;8.93;;;16.20;63.80;;;;;;5007511;28;20410;-77
2022/07/01 05:40:40;;;;;;;14.85;7.13;;;16.30;64.60;;;;;;5044748;28;20961;-77
2022/07/01 05:43:06;;;;;;;17.40;7.53;;;16.20;63.50;;;;;;5074901;28;20396;-77
2022/07/01 05:45:31;;;;;;;17.33;7.05;;;16.20;64.20;;;;;;5074627;28;20498;-77
2022/07/01 05:47:57;;;;;;;11.83;6.60;;;16.20;65.00;;;;;;5075571;28;20425;-77
2022/07/01 05:50:23;;;;;;;13.40;6.60;;;16.40;63.10;;;;;;5057212;28;20383;-77
2022/07/01 05:52:49;;;;;;;10.93;6.00;;;16.50;61.70;;;;;;5075328;28;20411;-77
2022/07/01 05:55:15;;;;;;;16.35;6.50;;;16.70;59.30;;;;;;5075304;28;20387;-76
2022/07/01 05:57:41;;;;;;;13.65;6.10;;;16.90;57.40;;;;;;5074634;28;20771;-76
2022/07/01 06:00:09;;;;;;;10.57;6.30;;;17.00;58.10;;;;;;5056521;28;20380;-78
2022/07/01 06:02:35;;;;;;;15.88;6.70;;;17.00;56.40;;;;;;5057641;28;20400;-76
2022/07/01 06:05:04;;;;;;;12.60;7.15;;;17.20;55.80;;;;;;5041684;28;20488;-78
2022/07/01 06:07:29;;;;;;;11.55;7.03;;;17.30;53.80;;;;;;5058996;28;20463;-76
2022/07/01 06:09:56;;;;;;;14.20;6.60;;;17.20;52.50;;;;;;5056930;28;20411;-76
2022/07/01 06:12:22;;;;;;;18.90;7.38;;;17.20;54.00;;;;;;5074051;28;20434;-77
2022/07/01 06:14:48;;;;;;;15.75;7.88;;;17.20;53.70;;;;;;5057011;28;20879;-76
2022/07/01 06:17:13;;;;;;;13.82;8.07;;;17.20;53.90;;;;;;5076441;28;20398;-77
2022/07/01 06:19:40;;;;;;;13.38;7.35;;;17.10;54.30;;;;;;5075767;28;20372;-77
2022/07/01 06:22:06;;;;;;;17.15;7.50;;;17.10;54.70;;;;;;5075933;28;20388;-76
2022/07/01 06:24:31;;;;;;;10.82;7.00;;;17.20;55.60;;;;;;5074674;28;20440;-78
2022/07/01 06:26:57;;;;;;;14.50;7.90;;;17.30;55.70;;;;;;5073750;28;20451;-78
2022/07/01 06:29:22;;;;;;;13.88;7.10;;;17.60;52.40;;;;;;5073417;28;20730;-76
2022/07/01 06:31:48;;;;;;;14.07;7.30;;;17.70;50.00;;;;;;5073334;28;20372;-77
2022/07/01 06:34:13;;;;;;;11.97;6.67;;;17.90;48.60;;;;;;5073244;28;20380;-76
2022/07/01 06:36:39;;;;;;;13.00;7.28;;;17.90;48.10;;;;;;5072817;28;20880;-76
2022/07/01 06:39:05;;;;;;;16.88;6.53;;;17.90;47.50;;;;;;5072802;28;20404;-76
2022/07/01 06:41:31;;;;;;;16.23;8.40;;;17.90;47.80;;;;;;5073728;28;20386;-76
2022/07/01 06:44:00;;;;;;;13.43;7.50;;;17.90;49.30;;;;;;5072816;28;20441;-76
2022/07/01 06:46:27;;;;;;;11.05;6.60;;;18.00;50.00;;;;;;5054966;28;20411;-77
2022/07/01 06:48:54;;;;;;;13.65;7.20;;;18.30;46.40;;;;;;5055639;28;20437;-77
2022/07/01 06:51:19;;;;;;;10.55;6.90;;;18.50;44.10;;;;;;5055567;28;20472;-77
2022/07/01 06:53:46;;;;;;;10.80;7.03;;;18.60;42.00;;;;;;5075692;28;20414;-77
2022/07/01 06:56:12;;;;;;;13.55;6.70;;;18.70;41.50;;;;;;5056534;28;20390;-76
2022/07/01 06:58:39;;;;;;;10.40;6.80;;;18.60;42.90;;;;;;5073863;28;20383;-77
2022/07/01 07:01:05;;;;;;;13.30;7.10;;;18.50;42.40;;;;;;5056647;28;20399;-77
2022/07/01 07:03:34;;;;;;;13.35;6.38;;;18.50;43.30;;;;;;5056443;28;20391;-77
2022/07/01 07:06:00;;;;;;;8.70;5.77;;;18.80;41.10;;;;;;5075420;28;20461;-77
2022/07/01 07:08:26;;;;;;;10.20;6.07;;;18.90;40.50;;;;;;5074520;28;20422;-77
2022/07/01 07:10:52;;;;;;;15.50;6.30;;;18.90;39.60;;;;;;5073227;28;20418;-76
2022/07/01 07:13:18;;;;;;;11.50;6.20;;;18.70;40.00;;;;;;5073147;28;20388;-78
2022/07/01 07:15:43;;;;;;;15.50;6.50;;;18.80;40.90;;;;;;5073407;28;20406;-77
2022/07/01 07:18:09;;;;;;;10.20;6.03;;;18.70;40.90;;;;;;5056638;28;20387;-77
2022/07/01 07:20:35;;;;;;;11.30;6.30;;;18.80;39.10;;;;;;5076371;28;20423;-76
2022/07/01 07:23:01;;;;;;;11.65;6.30;;;18.90;39.40;;;;;;5073530;28;20394;-78
2022/07/01 07:25:28;;;;;;;8.83;6.40;;;18.90;38.40;;;;;;5056441;28;20407;-78
2022/07/01 07:27:54;;;;;;;8.47;6.23;;;18.80;39.10;;;;;;5077319;28;20436;-77
2022/07/01 07:30:20;;;;;;;6.50;5.67;;;18.80;39.20;;;;;;5076309;28;20463;-77
2022/07/01 07:32:46;;;;;;;7.70;5.80;;;18.80;39.60;;;;;;5075671;28;20415;-77
2022/07/01 07:35:12;;;;;;;10.77;6.30;;;19.10;37.20;;;;;;5075409;28;20887;-77
2022/07/01 07:37:39;;;;;;;10.82;6.60;;;19.30;36.20;;;;;;5076627;28;20410;-77
2022/07/01 07:40:11;;;;;;;9.93;5.82;;;19.30;36.40;;;;;;5076173;28;20884;-77
2022/07/01 07:42:38;;;;;;;13.57;6.32;;;19.60;35.90;;;;;;5061886;28;20410;-77
2022/07/01 07:45:18;;;;;;;10.40;6.70;;;19.60;35.50;;;;;;5059694;28;20769;-77
2022/07/01 07:47:57;;;;;;;8.68;6.18;;;19.60;35.00;;;;;;5062167;28;20383;-77
2022/07/01 07:50:23;;;;;;;10.93;5.60;;;19.60;34.80;;;;;;5058399;28;20393;-76
2022/07/01 07:52:49;;;;;;;8.33;5.57;;;19.40;35.30;;;;;;5075029;28;20376;-77
2022/07/01 07:55:14;;;;;;;12.80;5.90;;;19.20;36.20;;;;;;5076737;28;20479;-77
2022/07/01 07:57:41;;;;;;;11.43;5.83;;;19.20;35.60;;;;;;5076112;28;20388;-77
2022/07/01 08:00:09;;;;;;;11.15;6.05;;;19.10;35.20;;;;;;5076522;28;20402;-77
2022/07/01 08:02:35;;;;;;;10.82;6.10;;;19.20;35.20;;;;;;5083580;28;20721;-77
2022/07/01 08:05:01;;;;;;;9.48;5.20;;;19.40;36.20;;;;;;5087229;28;20403;-77
2022/07/01 08:07:26;;;;;;;12.07;5.70;;;19.80;33.10;;;;;;5079516;28;20385;-76
2022/07/01 08:09:52;;;;;;;9.88;5.93;;;20.20;31.60;;;;;;5063875;28;20384;-77
2022/07/01 08:12:18;;;;;;;11.10;5.50;;;20.20;31.20;;;;;;5063425;28;20760;-77
2022/07/01 08:14:44;;;;;;;8.30;5.23;;;20.60;31.20;;;;;;5068108;28;20383;-77
2022/07/01 08:17:09;;;;;;;9.10;5.30;;;20.60;29.40;;;;;;5061126;28;20487;-76
2022/07/01 08:19:35;;;;;;;10.50;5.75;;;20.20;31.20;;;;;;5077649;28;20469;-75
2022/07/01 08:22:01;;;;;;;11.45;5.95;;;19.50;33.40;;;;;;5072340;28;20384;-75
2022/07/01 08:24:27;;;;;;;9.60;5.30;;;18.90;36.10;;;;;;5051334;28;20439;-75
2022/07/01 08:26:52;;;;;;;8.95;5.68;;;18.60;38.50;;;;;;5061363;28;20415;-76
2022/07/01 08:29:18;;;;;;;13.30;6.13;;;18.40;40.40;;;;;;5078465;28;20375;-74
2022/07/01 08:31:44;;;;;;;9.30;5.60;;;18.50;39.50;;;;;;5068497;28;20774;-75
2022/07/01 08:34:10;;;;;;;10.07;4.83;;;18.70;39.30;;;;;;5070923;28;20502;-75
2022/07/01 08:36:35;;;;;;;10.40;5.13;;;19.00;36.90;;;;;;5066414;28;20493;-75
2022/07/01 08:39:02;;;;;;;8.20;4.50;;;18.90;37.00;;;;;;5084186;28;20458;-78
2022/07/01 08:41:28;;;;;;;10.18;5.00;;;19.10;36.30;;;;;;5070716;28;20397;-77
2022/07/01 08:43:53;;;;;;;5.53;4.17;;;19.20;35.70;;;;;;5052847;28;20905;-78
2022/07/01 08:46:21;;;;;;;5.70;4.10;;;19.10;33.60;;;;;;5078108;28;20387;-77
2022/07/01 08:48:46;;;;;;;16.70;4.80;;;19.20;33.90;;;;;;5056756;28;20392;-77
2022/07/01 08:51:12;;;;;;;7.00;4.10;;;19.40;33.20;;;;;;5062674;28;20396;-77
2022/07/01 08:53:38;;;;;;;11.38;4.30;;;19.70;31.30;;;;;;5060192;28;20411;-76
2022/07/01 08:58:49;;;;;;;8.10;4.13;;;20.00;31.70;;;;;;5060412;28;20784;-77
2022/07/01 09:01:25;;;;;;;10.73;4.30;;;20.20;29.80;;;;;;5068815;28;20400;-76
2022/07/01 09:03:52;;;;;;;8.20;3.92;;;20.60;27.80;;;;;;5058507;28;20870;-77
2022/07/01 09:06:22;;;;;;;6.55;3.58;;;20.80;26.40;;;;;;5070472;28;20469;-77
2022/07/01 09:08:49;;;;;;;8.90;3.67;;;20.90;26.10;;;;;;5069343;28;20398;-78
2022/07/01 09:11:23;;;;;;;8.77;4.28;;;21.00;26.90;;;;;;5074353;28;20375;-77
2022/07/01 09:14:10;;;;;;;9.82;4.78;;;21.10;27.30;;;;;;5058104;28;20455;-77
2022/07/01 09:16:46;;;;;;;10.63;4.30;;;21.00;26.00;;;;;;5086723;28;20392;-76
2022/07/01 09:19:14;;;;;;;7.27;3.63;;;21.10;25.70;;;;;;5077779;28;20364;-77
2022/07/01 09:21:40;;;;;;;4.88;3.08;;;21.20;24.20;;;;;;5074393;28;20810;-76
2022/07/01 09:24:44;;;;;;;7.90;3.10;;;21.30;24.70;;;;;;5061782;28;20447;-77
2022/07/01 09:27:16;;;;;;;6.50;3.03;;;21.50;24.60;;;;;;5065308;28;20421;-77
2022/07/01 09:29:48;;;;;;;6.13;2.65;;;21.60;22.90;;;;;;5080882;28;20380;-77
2022/07/01 09:32:17;;;;;;;5.20;2.40;;;21.60;20.90;;;;;;5079781;28;20380;-77
2022/07/01 09:34:51;;;;;;;5.60;2.38;;;21.60;22.20;;;;;;5079785;28;20384;-77
2022/07/01 09:37:21;;;;;;;9.43;2.40;;;21.80;20.80;;;;;;5089563;23;20517;-75
2022/07/01 09:39:52;;;;;;;5.33;2.57;;;21.90;19.80;;;;;;5085273;28;20527;-77
2022/07/01 09:42:21;;;;;;;3.63;2.10;;;21.80;19.50;;;;;;5095136;28;20374;-76
2022/07/01 09:45:02;;;;;;;6.43;2.00;;;21.70;18.80;;;;;;5095290;28;20480;-75
2022/07/01 09:47:29;;;;;;;6.22;2.30;;;21.70;19.30;;;;;;5070667;28;20796;-77
2022/07/01 09:49:56;;;;;;;5.78;2.58;;;21.80;19.40;;;;;;5091042;28;20383;-77
2022/07/01 09:52:22;;;;;;;7.00;2.63;;;21.70;20.00;;;;;;5081416;28;20424;-77
2022/07/01 09:54:50;;;;;;;8.37;2.70;;;22.00;20.80;;;;;;5073335;28;20387;-75
2022/07/01 09:57:17;;;;;;;4.50;1.70;;;22.30;18.30;;;;;;5072964;28;20421;-75
2022/07/01 09:59:43;;;;;;;4.40;2.10;;;22.50;16.60;;;;;;5070571;28;20393;-76
2022/07/01 10:02:09;;;;;;;6.53;2.15;;;22.60;16.10;;;;;;5067924;28;20452;-75
2022/07/01 10:04:38;;;;;;;5.75;2.00;;;22.60;16.80;;;;;;5071840;28;21158;-77
2022/07/01 10:07:41;;;;;;;4.28;1.50;;;22.60;16.60;;;;;;5070933;28;20424;-74
2022/07/01 10:10:32;;;;;;;3.72;2.00;;;22.50;15.70;;;;;;5057889;28;20381;-80
2022/07/01 10:13:00;;;;;;;3.95;2.20;;;22.20;16.60;;;;;;5065570;28;20386;-77
2022/07/01 10:15:26;;;;;;;5.10;1.88;;;21.90;17.90;;;;;;5095815;28;20462;-75
2022/07/01 10:17:55;;;;;;;4.38;1.63;;;22.10;18.40;;;;;;5085002;28;20879;-76
2022/07/01 10:20:25;;;;;;;5.07;1.70;;;22.30;16.80;;;;;;5092430;28;20405;-76
2022/07/01 10:22:59;;;;;;;4.57;1.80;;;22.30;15.70;;;;;;5071637;28;20524;-77
2022/07/01 10:25:33;;;;;;;6.97;2.50;;;21.80;17.70;;;;;;5071401;28;20506;-76
2022/07/01 10:28:19;;;;;;;7.32;2.53;;;21.80;17.90;;;;;;5071658;28;20378;-76
2022/07/01 10:31:03;;;;;;;7.77;3.67;;;22.30;17.70;;;;;;5067250;28;20721;-76
2022/07/01 10:33:39;;;;;;;6.40;2.20;;;23.00;16.60;;;;;;5069669;28;20808;-74
2022/07/01 10:36:17;;;;;;;7.40;2.10;;;23.10;15.50;;;;;;5059601;28;20705;-75
2022/07/01 10:39:03;;;;;;;4.53;1.70;;;23.30;14.60;;;;;;5051941;28;20485;-76
2022/07/01 10:41:31;;;;;;;5.15;2.10;;;23.00;14.10;;;;;;5082828;28;20392;-76
2022/07/01 10:43:58;;;;;;;4.32;1.88;;;22.90;15.10;;;;;;5064068;28;20401;-74
2022/07/01 10:46:59;;;;;;;2.92;1.60;;;22.60;15.00;;;;;;5065580;28;20391;-74
2022/07/01 10:49:37;;;;;;;3.33;1.80;;;22.20;15.50;;;;;;5065205;28;20386;-74
2022/07/01 10:52:10;;;;;;;4.38;1.73;;;22.10;15.90;;;;;;5059277;28;20423;-73
2022/07/01 10:54:36;;;;;;;4.10;1.70;;;22.30;17.00;;;;;;5061081;28;20748;-75
2022/07/01 10:57:20;;;;;;;3.90;1.88;;;22.80;16.20;;;;;;5067760;28;20480;-75
2022/07/01 11:00:05;;;;;;;3.13;1.90;;;22.40;16.00;;;;;;5070409;28;20884;-76
2022/07/01 11:02:33;;;;;;;3.97;1.95;;;22.20;16.80;;;;;;5052536;28;20418;-75
2022/07/01 11:05:02;;;;;;;2.72;1.90;;;22.10;16.60;;;;;;5060936;28;20409;-75
2022/07/01 11:07:30;;;;;;;3.65;2.13;;;21.70;17.20;;;;;;5068119;28;20416;-78
2022/07/01 11:09:57;;;;;;;5.32;2.10;;;21.60;17.20;;;;;;5070371;28;20415;-76
2022/07/01 11:12:23;;;;;;;5.72;2.38;;;21.60;18.10;;;;;;5070310;28;20383;-73
2022/07/01 11:14:49;;;;;;;6.13;2.20;;;21.50;18.90;;;;;;5071805;28;20480;-75
2022/07/01 11:17:15;;;;;;;3.22;2.20;;;21.20;19.00;;;;;;5071575;28;20395;-74
2022/07/01 11:19:51;;;;;;;5.35;1.90;;;21.10;18.00;;;;;;5070782;28;20777;-74
2022/07/01 11:22:28;;;;;;;5.05;1.60;;;21.50;18.20;;;;;;5071288;28;20391;-74
2022/07/01 11:24:56;;;;;;;4.57;1.70;;;21.80;15.10;;;;;;5072230;28;20406;-75
2022/07/01 11:27:22;;;;;;;6.60;1.90;;;22.10;15.20;;;;;;5071313;28;20790;-74
2022/07/01 11:29:52;;;;;;;7.10;1.80;;;22.30;15.20;;;;;;5071699;28;20376;-74
2022/07/01 11:32:46;;;;;;;2.90;1.70;;;22.20;15.60;;;;;;5071669;28;20390;-73
2022/07/01 11:41:02;;;;;;;6.95;2.30;;;22.00;15.40;;;;;;5071440;28;20391;-74
2022/07/01 11:43:31;;;;;;;5.82;1.70;;;22.00;16.90;;;;;;5071517;28;20737;-74
2022/07/01 11:46:00;;;;;;;4.30;1.60;;;22.00;15.80;;;;;;5071263;28;20452;-75
2022/07/01 11:48:49;;;;;;;10.50;1.75;;;22.10;15.00;;;;;;5070820;28;20984;-74
2022/07/01 11:51:20;;;;;;;4.43;1.60;;;22.30;14.80;;;;;;5070829;28;20380;-75
2022/07/01 11:53:51;;;;;;;4.90;1.75;;;22.10;15.10;;;;;;5071454;28;20386;-75
2022/07/01 11:56:27;;;;;;;4.30;1.60;;;22.00;14.10;;;;;;5071653;28;20985;-74
2022/07/01 11:58:53;;;;;;;2.00;1.50;;;21.80;15.20;;;;;;5053564;28;20476;-74
2022/07/01 12:01:33;;;;;;;2.40;1.30;;;22.10;15.30;;;;;;5070907;28;20446;-74
2022/07/01 12:04:02;;;;;;;4.80;1.30;;;22.30;12.70;;;;;;5071575;28;20388;-74
2022/07/01 12:06:28;;;;;;;3.40;1.40;;;22.30;13.20;;;;;;5070835;28;20384;-75
2022/07/01 12:08:56;;;;;;;3.00;1.30;;;22.30;12.90;;;;;;5054169;28;20388;-75
2022/07/01 12:11:23;;;;;;;4.97;1.38;;;22.30;13.00;;;;;;5053353;28;20471;-74
2022/07/01 12:13:50;;;;;;;5.40;1.70;;;22.50;12.60;;;;;;5072295;28;20770;-76
2022/07/01 12:16:17;;;;;;;3.70;1.48;;;22.80;11.60;;;;;;5053955;28;20399;-72
2022/07/01 12:18:55;;;;;;;5.78;1.20;;;23.00;11.90;;;;;;5054072;28;20718;-76
2022/07/01 12:21:22;;;;;;;2.15;1.27;;;23.10;12.00;;;;;;5071778;28;20406;-75
2022/07/01 12:24:11;;;;;;;4.38;1.30;;;23.00;11.10;;;;;;5071428;28;20463;-73
2022/07/01 12:27:07;;;;;;;3.55;1.35;;;23.00;10.60;;;;;;5071134;28;20774;-75
2022/07/01 12:29:53;;;;;;;4.20;1.10;;;23.00;10.60;;;;;;5041420;28;20775;-73
2022/07/01 12:32:23;;;;;;;2.95;1.20;;;22.80;12.10;;;;;;5072125;28;20453;-75
2022/07/01 12:34:50;;;;;;;3.42;1.30;;;22.70;11.60;;;;;;5071484;28;20854;-74
2022/07/01 12:37:19;;;;;;;2.00;1.10;;;22.80;10.00;;;;;;5072504;28;20403;-74
2022/07/01 12:39:50;;;;;;;3.70;1.15;;;22.80;8.70;;;;;;5074124;28;20432;-72
2022/07/01 12:42:24;;;;;;;5.50;1.00;;;22.80;9.10;;;;;;5073524;28;20395;-75
2022/07/01 12:44:51;;;;;;;2.03;1.13;;;23.20;9.10;;;;;;5054525;28;20485;-74
2022/07/01 12:47:29;;;;;;;5.40;0.98;;;23.60;8.50;;;;;;5071139;28;20375;-73
2022/07/01 12:50:10;;;;;;;3.58;1.10;;;23.60;7.80;;;;;;5075439;28;20384;-75
2022/07/01 12:52:37;;;;;;;2.10;1.20;;;24.10;8.10;;;;;;5074023;28;20461;-74
2022/07/01 12:55:22;;;;;;;4.05;1.30;;;24.10;7.70;;;;;;5074527;28;20459;-74
2022/07/01 12:57:53;;;;;;;3.58;1.50;;;24.20;9.90;;;;;;5074769;28;20387;-74
2022/07/01 13:00:21;;;;;;;3.45;1.30;;;24.40;9.90;;;;;;5074103;28;21006;-74
2022/07/01 13:02:50;;;;;;;6.40;1.20;;;24.50;8.80;;;;;;5074717;28;20388;-75
2022/07/01 13:05:16;;;;;;;3.80;1.60;;;24.30;8.80;;;;;;5075431;28;20490;-75